sensor_id;sensor_type;location;lat;lon;timestamp;P1;durP1;ratioP1;P2;durP2;ratioP2
4074;SDS011;2052;53.522;9.806;2023-07-30T00:00:31;7.03;;;6.33;;
4074;SDS011;2052;53.522;9.806;2023-07-30T00:02:59;10.33;;;5.60;;
4074;SDS011;2052;53.522;9.806;2023-07-30T00:05:26;8.20;;;5.37;;
4074;SDS011;2052;53.522;9.806;2023-07-30T00:07:52;12.90;;;5.90;;
4074;SDS011;2052;53.522;9.806;2023-07-30T00:10:19;18.33;;;5.80;;
4074;SDS011;2052;53.522;9.806;2023-07-30T00:12:47;7.43;;;5.17;;
4074;SDS011;2052;53.522;9.806;2023-07-30T00:15:13;10.77;;;6.67;;
4074;SDS011;2052;53.522;9.806;2023-07-30T00:17:40;9.80;;;5.40;;
4074;SDS011;2052;53.522;9.806;2023-07-30T00:20:08;10.03;;;6.00;;
4074;SDS011;2052;53.522;9.806;2023-07-30T00:22:35;8.63;;;6.57;;
4074;SDS011;2052;53.522;9.806;2023-07-30T00:25:01;9.60;;;6.00;;
4074;SDS011;2052;53.522;9.806;2023-07-30T00:27:28;7.17;;;5.93;;
4074;SDS011;2052;53.522;9.806;2023-07-30T00:29:55;9.03;;;5.83;;
4074;SDS011;2052;53.522;9.806;2023-07-30T00:32:21;8.30;;;5.80;;
4074;SDS011;2052;53.522;9.806;2023-07-30T00:34:48;8.67;;;5.60;;
4074;SDS011;2052;53.522;9.806;2023-07-30T00:37:16;10.87;;;6.13;;
4074;SDS011;2052;53.522;9.806;2023-07-30T00:39:42;6.87;;;5.80;;
4074;SDS011;2052;53.522;9.806;2023-07-30T00:42:10;5.63;;;4.80;;
4074;SDS011;2052;53.522;9.806;2023-07-30T00:44:36;8.23;;;5.60;;
4074;SDS011;2052;53.522;9.806;2023-07-30T00:47:03;7.67;;;5.27;;
4074;SDS011;2052;53.522;9.806;2023-07-30T00:49:30;10.37;;;6.13;;
4074;SDS011;2052;53.522;9.806;2023-07-30T00:51:56;7.07;;;5.53;;
4074;SDS011;2052;53.522;9.806;2023-07-30T00:54:24;8.27;;;5.97;;
4074;SDS011;2052;53.522;9.806;2023-07-30T00:56:51;6.90;;;5.77;;
4074;SDS011;2052;53.522;9.806;2023-07-30T00:59:19;8.47;;;6.60;;
4074;SDS011;2052;53.522;9.806;2023-07-30T01:01:45;9.33;;;5.90;;
4074;SDS011;2052;53.522;9.806;2023-07-30T01:04:13;9.90;;;6.27;;
4074;SDS011;2052;53.522;9.806;2023-07-30T01:06:40;9.90;;;5.90;;
4074;SDS011;2052;53.522;9.806;2023-07-30T01:09:07;8.10;;;6.43;;
4074;SDS011;2052;53.522;9.806;2023-07-30T01:11:35;8.03;;;6.77;;
4074;SDS011;2052;53.522;9.806;2023-07-30T01:14:01;11.37;;;7.03;;
4074;SDS011;2052;53.522;9.806;2023-07-30T01:16:28;13.23;;;6.63;;
4074;SDS011;2052;53.522;9.806;2023-07-30T01:18:55;15.30;;;6.50;;
4074;SDS011;2052;53.522;9.806;2023-07-30T01:21:25;8.33;;;6.30;;
4074;SDS011;2052;53.522;9.806;2023-07-30T01:23:51;10.00;;;6.40;;
4074;SDS011;2052;53.522;9.806;2023-07-30T01:26:19;8.80;;;6.97;;
4074;SDS011;2052;53.522;9.806;2023-07-30T01:28:49;10.03;;;7.17;;
4074;SDS011;2052;53.522;9.806;2023-07-30T01:31:17;12.07;;;7.43;;
4074;SDS011;2052;53.522;9.806;2023-07-30T01:33:44;10.03;;;6.77;;
4074;SDS011;2052;53.522;9.806;2023-07-30T01:36:15;10.10;;;6.57;;
4074;SDS011;2052;53.522;9.806;2023-07-30T01:38:43;8.60;;;6.30;;
4074;SDS011;2052;53.522;9.806;2023-07-30T01:41:10;14.03;;;7.53;;
4074;SDS011;2052;53.522;9.806;2023-07-30T01:43:37;18.67;;;7.60;;
4074;SDS011;2052;53.522;9.806;2023-07-30T01:46:03;14.20;;;8.43;;
4074;SDS011;2052;53.522;9.806;2023-07-30T01:48:30;10.27;;;7.77;;
4074;SDS011;2052;53.522;9.806;2023-07-30T01:50:59;11.73;;;7.30;;
4074;SDS011;2052;53.522;9.806;2023-07-30T01:53:25;10.53;;;7.50;;
4074;SDS011;2052;53.522;9.806;2023-07-30T01:55:53;9.90;;;7.00;;
4074;SDS011;2052;53.522;9.806;2023-07-30T01:58:20;10.30;;;7.73;;
4074;SDS011;2052;53.522;9.806;2023-07-30T02:00:46;11.40;;;8.23;;
4074;SDS011;2052;53.522;9.806;2023-07-30T02:03:13;12.07;;;8.10;;
4074;SDS011;2052;53.522;9.806;2023-07-30T02:05:39;13.53;;;7.83;;
4074;SDS011;2052;53.522;9.806;2023-07-30T02:08:06;12.67;;;8.57;;
4074;SDS011;2052;53.522;9.806;2023-07-30T02:10:32;12.20;;;8.40;;
4074;SDS011;2052;53.522;9.806;2023-07-30T02:13:00;16.53;;;9.83;;
4074;SDS011;2052;53.522;9.806;2023-07-30T02:15:27;12.53;;;8.53;;
4074;SDS011;2052;53.522;9.806;2023-07-30T02:17:53;14.70;;;9.10;;
4074;SDS011;2052;53.522;9.806;2023-07-30T02:20:20;17.57;;;9.53;;
4074;SDS011;2052;53.522;9.806;2023-07-30T02:22:46;15.13;;;9.80;;
4074;SDS011;2052;53.522;9.806;2023-07-30T02:25:13;11.97;;;8.17;;
4074;SDS011;2052;53.522;9.806;2023-07-30T02:27:40;17.60;;;9.07;;
4074;SDS011;2052;53.522;9.806;2023-07-30T02:30:08;13.80;;;9.17;;
4074;SDS011;2052;53.522;9.806;2023-07-30T02:32:35;14.17;;;9.70;;
4074;SDS011;2052;53.522;9.806;2023-07-30T02:35:01;13.90;;;9.40;;
4074;SDS011;2052;53.522;9.806;2023-07-30T02:37:28;16.17;;;10.43;;
4074;SDS011;2052;53.522;9.806;2023-07-30T02:39:55;15.87;;;9.13;;
4074;SDS011;2052;53.522;9.806;2023-07-30T02:42:21;20.07;;;9.67;;
4074;SDS011;2052;53.522;9.806;2023-07-30T02:44:48;11.60;;;8.30;;
4074;SDS011;2052;53.522;9.806;2023-07-30T02:47:15;27.73;;;11.50;;
4074;SDS011;2052;53.522;9.806;2023-07-30T02:49:42;15.37;;;9.67;;
4074;SDS011;2052;53.522;9.806;2023-07-30T02:52:09;16.17;;;9.40;;
4074;SDS011;2052;53.522;9.806;2023-07-30T02:54:35;17.93;;;9.93;;
4074;SDS011;2052;53.522;9.806;2023-07-30T02:57:02;13.83;;;9.60;;
4074;SDS011;2052;53.522;9.806;2023-07-30T02:59:29;13.17;;;9.53;;
4074;SDS011;2052;53.522;9.806;2023-07-30T03:01:55;15.53;;;10.67;;
4074;SDS011;2052;53.522;9.806;2023-07-30T03:04:23;17.13;;;10.30;;
4074;SDS011;2052;53.522;9.806;2023-07-30T03:06:50;13.10;;;9.70;;
4074;SDS011;2052;53.522;9.806;2023-07-30T03:09:16;15.37;;;9.67;;
4074;SDS011;2052;53.522;9.806;2023-07-30T03:11:43;20.23;;;10.93;;
4074;SDS011;2052;53.522;9.806;2023-07-30T03:14:09;13.90;;;9.40;;
4074;SDS011;2052;53.522;9.806;2023-07-30T03:16:36;14.00;;;9.63;;
4074;SDS011;2052;53.522;9.806;2023-07-30T03:19:02;17.13;;;10.33;;
4074;SDS011;2052;53.522;9.806;2023-07-30T03:21:30;20.20;;;10.53;;
4074;SDS011;2052;53.522;9.806;2023-07-30T03:23:57;11.87;;;8.73;;
4074;SDS011;2052;53.522;9.806;2023-07-30T03:26:24;14.93;;;9.63;;
4074;SDS011;2052;53.522;9.806;2023-07-30T03:28:50;17.03;;;9.93;;
4074;SDS011;2052;53.522;9.806;2023-07-30T03:31:17;13.70;;;8.90;;
4074;SDS011;2052;53.522;9.806;2023-07-30T03:33:43;15.03;;;9.70;;
4074;SDS011;2052;53.522;9.806;2023-07-30T03:36:11;13.50;;;9.50;;
4074;SDS011;2052;53.522;9.806;2023-07-30T03:38:39;17.10;;;11.27;;
4074;SDS011;2052;53.522;9.806;2023-07-30T03:41:06;17.70;;;11.17;;
4074;SDS011;2052;53.522;9.806;2023-07-30T03:43:33;18.93;;;11.40;;
4074;SDS011;2052;53.522;9.806;2023-07-30T03:45:59;19.50;;;11.10;;
4074;SDS011;2052;53.522;9.806;2023-07-30T03:48:26;22.30;;;11.80;;
4074;SDS011;2052;53.522;9.806;2023-07-30T03:50:53;22.33;;;10.63;;
4074;SDS011;2052;53.522;9.806;2023-07-30T03:53:19;11.80;;;8.90;;
4074;SDS011;2052;53.522;9.806;2023-07-30T03:58:29;14.77;;;9.30;;
4074;SDS011;2052;53.522;9.806;2023-07-30T04:00:56;19.87;;;11.53;;
4074;SDS011;2052;53.522;9.806;2023-07-30T04:03:22;16.10;;;10.50;;
4074;SDS011;2052;53.522;9.806;2023-07-30T04:05:49;13.47;;;9.57;;
4074;SDS011;2052;53.522;9.806;2023-07-30T04:08:15;19.20;;;10.47;;
4074;SDS011;2052;53.522;9.806;2023-07-30T04:10:42;14.43;;;8.60;;
4074;SDS011;2052;53.522;9.806;2023-07-30T04:13:10;14.23;;;10.03;;
4074;SDS011;2052;53.522;9.806;2023-07-30T04:15:36;13.57;;;9.33;;
4074;SDS011;2052;53.522;9.806;2023-07-30T04:18:03;19.37;;;8.63;;
4074;SDS011;2052;53.522;9.806;2023-07-30T04:20:29;12.50;;;8.70;;
4074;SDS011;2052;53.522;9.806;2023-07-30T04:22:56;15.67;;;9.77;;
4074;SDS011;2052;53.522;9.806;2023-07-30T04:25:23;13.40;;;9.17;;
4074;SDS011;2052;53.522;9.806;2023-07-30T04:27:49;13.30;;;8.33;;
4074;SDS011;2052;53.522;9.806;2023-07-30T04:30:17;13.33;;;6.90;;
4074;SDS011;2052;53.522;9.806;2023-07-30T04:32:44;13.40;;;7.80;;
4074;SDS011;2052;53.522;9.806;2023-07-30T04:35:10;11.53;;;7.60;;
4074;SDS011;2052;53.522;9.806;2023-07-30T04:37:37;15.57;;;7.70;;
4074;SDS011;2052;53.522;9.806;2023-07-30T04:40:04;14.73;;;7.43;;
4074;SDS011;2052;53.522;9.806;2023-07-30T04:42:31;22.07;;;7.97;;
4074;SDS011;2052;53.522;9.806;2023-07-30T04:44:57;12.00;;;7.80;;
4074;SDS011;2052;53.522;9.806;2023-07-30T04:47:25;19.50;;;8.73;;
4074;SDS011;2052;53.522;9.806;2023-07-30T04:49:52;13.87;;;6.30;;
4074;SDS011;2052;53.522;9.806;2023-07-30T04:52:18;10.90;;;7.17;;
4074;SDS011;2052;53.522;9.806;2023-07-30T04:54:45;10.00;;;7.53;;
4074;SDS011;2052;53.522;9.806;2023-07-30T04:57:11;10.30;;;6.20;;
4074;SDS011;2052;53.522;9.806;2023-07-30T04:59:38;8.40;;;5.60;;
4074;SDS011;2052;53.522;9.806;2023-07-30T05:02:05;7.60;;;5.03;;
4074;SDS011;2052;53.522;9.806;2023-07-30T05:04:33;7.40;;;5.03;;
4074;SDS011;2052;53.522;9.806;2023-07-30T05:06:59;14.37;;;5.70;;
4074;SDS011;2052;53.522;9.806;2023-07-30T05:09:26;7.17;;;4.67;;
4074;SDS011;2052;53.522;9.806;2023-07-30T05:11:52;10.10;;;4.70;;
4074;SDS011;2052;53.522;9.806;2023-07-30T05:14:19;7.37;;;5.10;;
4074;SDS011;2052;53.522;9.806;2023-07-30T05:16:45;7.67;;;4.97;;
4074;SDS011;2052;53.522;9.806;2023-07-30T05:19:12;8.80;;;4.83;;
4074;SDS011;2052;53.522;9.806;2023-07-30T05:21:40;8.50;;;5.23;;
4074;SDS011;2052;53.522;9.806;2023-07-30T05:24:06;8.30;;;5.13;;
4074;SDS011;2052;53.522;9.806;2023-07-30T05:26:33;8.67;;;4.97;;
4074;SDS011;2052;53.522;9.806;2023-07-30T05:29:00;8.20;;;5.10;;
4074;SDS011;2052;53.522;9.806;2023-07-30T05:31:26;6.73;;;5.27;;
4074;SDS011;2052;53.522;9.806;2023-07-30T05:33:53;7.87;;;5.23;;
4074;SDS011;2052;53.522;9.806;2023-07-30T05:36:19;9.80;;;4.73;;
4074;SDS011;2052;53.522;9.806;2023-07-30T05:38:47;9.60;;;5.47;;
4074;SDS011;2052;53.522;9.806;2023-07-30T05:41:14;7.03;;;4.43;;
4074;SDS011;2052;53.522;9.806;2023-07-30T05:43:40;6.00;;;4.47;;
4074;SDS011;2052;53.522;9.806;2023-07-30T05:46:07;7.40;;;5.27;;
4074;SDS011;2052;53.522;9.806;2023-07-30T05:48:34;5.43;;;4.63;;
4074;SDS011;2052;53.522;9.806;2023-07-30T05:51:01;11.93;;;5.07;;
4074;SDS011;2052;53.522;9.806;2023-07-30T05:53:27;8.70;;;4.63;;
4074;SDS011;2052;53.522;9.806;2023-07-30T05:55:55;9.73;;;4.47;;
4074;SDS011;2052;53.522;9.806;2023-07-30T05:58:22;9.40;;;4.87;;
4074;SDS011;2052;53.522;9.806;2023-07-30T06:00:48;6.63;;;4.37;;
4074;SDS011;2052;53.522;9.806;2023-07-30T06:03:15;10.03;;;4.80;;
4074;SDS011;2052;53.522;9.806;2023-07-30T06:05:41;8.37;;;4.20;;
4074;SDS011;2052;53.522;9.806;2023-07-30T06:08:08;9.73;;;4.77;;
4074;SDS011;2052;53.522;9.806;2023-07-30T06:10:35;38.97;;;6.10;;
4074;SDS011;2052;53.522;9.806;2023-07-30T06:13:04;7.23;;;4.90;;
4074;SDS011;2052;53.522;9.806;2023-07-30T06:15:30;11.83;;;5.00;;
4074;SDS011;2052;53.522;9.806;2023-07-30T06:17:57;8.03;;;4.30;;
4074;SDS011;2052;53.522;9.806;2023-07-30T06:20:23;12.60;;;5.37;;
4074;SDS011;2052;53.522;9.806;2023-07-30T06:22:50;16.03;;;5.70;;
4074;SDS011;2052;53.522;9.806;2023-07-30T06:25:16;13.77;;;6.40;;
4074;SDS011;2052;53.522;9.806;2023-07-30T06:27:43;12.33;;;7.37;;
4074;SDS011;2052;53.522;9.806;2023-07-30T06:32:53;14.20;;;6.40;;
4074;SDS011;2052;53.522;9.806;2023-07-30T06:35:19;10.33;;;6.33;;
4074;SDS011;2052;53.522;9.806;2023-07-30T06:37:46;16.77;;;7.30;;
4074;SDS011;2052;53.522;9.806;2023-07-30T06:40:12;15.60;;;7.60;;
4074;SDS011;2052;53.522;9.806;2023-07-30T06:42:39;13.17;;;6.73;;
4074;SDS011;2052;53.522;9.806;2023-07-30T06:45:06;17.40;;;6.33;;
4074;SDS011;2052;53.522;9.806;2023-07-30T06:47:36;12.37;;;6.70;;
4074;SDS011;2052;53.522;9.806;2023-07-30T06:50:04;13.23;;;6.60;;
4074;SDS011;2052;53.522;9.806;2023-07-30T06:52:39;18.17;;;5.77;;
4074;SDS011;2052;53.522;9.806;2023-07-30T06:55:06;14.70;;;6.27;;
4074;SDS011;2052;53.522;9.806;2023-07-30T06:57:36;11.33;;;6.00;;
4074;SDS011;2052;53.522;9.806;2023-07-30T07:00:03;12.60;;;6.60;;
4074;SDS011;2052;53.522;9.806;2023-07-30T07:02:30;10.70;;;6.20;;
4074;SDS011;2052;53.522;9.806;2023-07-30T07:04:59;10.83;;;6.57;;
4074;SDS011;2052;53.522;9.806;2023-07-30T07:07:26;19.10;;;7.27;;
4074;SDS011;2052;53.522;9.806;2023-07-30T07:09:53;9.40;;;6.53;;
4074;SDS011;2052;53.522;9.806;2023-07-30T07:12:20;12.93;;;6.27;;
4074;SDS011;2052;53.522;9.806;2023-07-30T07:14:47;17.03;;;7.23;;
4074;SDS011;2052;53.522;9.806;2023-07-30T07:17:19;11.67;;;7.00;;
4074;SDS011;2052;53.522;9.806;2023-07-30T07:19:46;18.13;;;6.07;;
4074;SDS011;2052;53.522;9.806;2023-07-30T07:22:14;15.97;;;6.20;;
4074;SDS011;2052;53.522;9.806;2023-07-30T07:24:46;18.93;;;5.70;;
4074;SDS011;2052;53.522;9.806;2023-07-30T07:27:13;11.63;;;5.63;;
4074;SDS011;2052;53.522;9.806;2023-07-30T07:29:39;13.47;;;5.43;;
4074;SDS011;2052;53.522;9.806;2023-07-30T07:32:08;16.80;;;6.30;;
4074;SDS011;2052;53.522;9.806;2023-07-30T07:34:35;13.03;;;5.80;;
4074;SDS011;2052;53.522;9.806;2023-07-30T07:37:04;7.93;;;5.50;;
4074;SDS011;2052;53.522;9.806;2023-07-30T07:39:33;13.53;;;5.27;;
4074;SDS011;2052;53.522;9.806;2023-07-30T07:42:00;11.40;;;7.50;;
4074;SDS011;2052;53.522;9.806;2023-07-30T07:44:27;16.10;;;6.53;;
4074;SDS011;2052;53.522;9.806;2023-07-30T07:46:53;15.60;;;6.70;;
4074;SDS011;2052;53.522;9.806;2023-07-30T07:49:20;10.17;;;6.00;;
4074;SDS011;2052;53.522;9.806;2023-07-30T07:51:46;10.37;;;6.60;;
4074;SDS011;2052;53.522;9.806;2023-07-30T07:54:13;10.30;;;6.33;;
4074;SDS011;2052;53.522;9.806;2023-07-30T07:56:45;12.17;;;5.77;;
4074;SDS011;2052;53.522;9.806;2023-07-30T07:59:11;13.53;;;6.53;;
4074;SDS011;2052;53.522;9.806;2023-07-30T08:01:38;9.33;;;6.30;;
4074;SDS011;2052;53.522;9.806;2023-07-30T08:04:07;11.90;;;6.07;;
4074;SDS011;2052;53.522;9.806;2023-07-30T08:06:35;15.70;;;5.80;;
4074;SDS011;2052;53.522;9.806;2023-07-30T08:09:02;8.10;;;5.50;;
4074;SDS011;2052;53.522;9.806;2023-07-30T08:11:28;13.50;;;5.97;;
4074;SDS011;2052;53.522;9.806;2023-07-30T08:13:57;17.50;;;5.43;;
4074;SDS011;2052;53.522;9.806;2023-07-30T08:16:24;9.67;;;4.53;;
4074;SDS011;2052;53.522;9.806;2023-07-30T08:18:51;14.30;;;5.57;;
4074;SDS011;2052;53.522;9.806;2023-07-30T08:21:18;13.80;;;5.20;;
4074;SDS011;2052;53.522;9.806;2023-07-30T08:23:46;13.80;;;5.30;;
4074;SDS011;2052;53.522;9.806;2023-07-30T08:26:13;17.57;;;5.43;;
4074;SDS011;2052;53.522;9.806;2023-07-30T08:28:40;14.97;;;5.03;;
4074;SDS011;2052;53.522;9.806;2023-07-30T08:31:07;13.20;;;4.47;;
4074;SDS011;2052;53.522;9.806;2023-07-30T08:33:36;7.97;;;4.40;;
4074;SDS011;2052;53.522;9.806;2023-07-30T08:36:04;11.70;;;4.57;;
4074;SDS011;2052;53.522;9.806;2023-07-30T08:38:30;12.80;;;4.40;;
4074;SDS011;2052;53.522;9.806;2023-07-30T08:40:57;17.40;;;4.70;;
4074;SDS011;2052;53.522;9.806;2023-07-30T08:43:24;16.33;;;4.43;;
4074;SDS011;2052;53.522;9.806;2023-07-30T08:45:50;15.53;;;4.67;;
4074;SDS011;2052;53.522;9.806;2023-07-30T08:48:18;15.40;;;5.60;;
4074;SDS011;2052;53.522;9.806;2023-07-30T08:50:45;13.03;;;4.80;;
4074;SDS011;2052;53.522;9.806;2023-07-30T08:53:15;10.23;;;4.23;;
4074;SDS011;2052;53.522;9.806;2023-07-30T08:55:42;10.03;;;4.50;;
4074;SDS011;2052;53.522;9.806;2023-07-30T08:58:08;19.00;;;4.30;;
4074;SDS011;2052;53.522;9.806;2023-07-30T09:00:37;11.47;;;4.83;;
4074;SDS011;2052;53.522;9.806;2023-07-30T09:03:05;14.33;;;4.47;;
4074;SDS011;2052;53.522;9.806;2023-07-30T09:05:34;4.17;;;2.97;;
4074;SDS011;2052;53.522;9.806;2023-07-30T09:08:00;11.73;;;4.87;;
4074;SDS011;2052;53.522;9.806;2023-07-30T09:10:27;11.47;;;4.57;;
4074;SDS011;2052;53.522;9.806;2023-07-30T09:12:54;12.50;;;4.40;;
4074;SDS011;2052;53.522;9.806;2023-07-30T09:15:29;7.97;;;4.47;;
4074;SDS011;2052;53.522;9.806;2023-07-30T09:17:57;9.97;;;4.30;;
4074;SDS011;2052;53.522;9.806;2023-07-30T09:20:23;12.23;;;4.50;;
4074;SDS011;2052;53.522;9.806;2023-07-30T09:22:51;11.97;;;4.30;;
4074;SDS011;2052;53.522;9.806;2023-07-30T09:25:18;10.87;;;4.50;;
4074;SDS011;2052;53.522;9.806;2023-07-30T09:27:47;13.00;;;4.80;;
4074;SDS011;2052;53.522;9.806;2023-07-30T09:30:14;13.70;;;5.00;;
4074;SDS011;2052;53.522;9.806;2023-07-30T09:32:41;20.10;;;5.20;;
4074;SDS011;2052;53.522;9.806;2023-07-30T09:35:08;10.27;;;4.20;;
4074;SDS011;2052;53.522;9.806;2023-07-30T09:37:36;20.70;;;6.93;;
4074;SDS011;2052;53.522;9.806;2023-07-30T09:40:05;12.57;;;3.90;;
4074;SDS011;2052;53.522;9.806;2023-07-30T09:42:33;10.83;;;4.63;;
4074;SDS011;2052;53.522;9.806;2023-07-30T09:45:03;12.30;;;5.30;;
4074;SDS011;2052;53.522;9.806;2023-07-30T09:47:33;11.60;;;4.40;;
4074;SDS011;2052;53.522;9.806;2023-07-30T09:50:01;14.57;;;4.27;;
4074;SDS011;2052;53.522;9.806;2023-07-30T09:52:28;10.17;;;4.43;;
4074;SDS011;2052;53.522;9.806;2023-07-30T09:54:55;12.03;;;4.30;;
4074;SDS011;2052;53.522;9.806;2023-07-30T09:57:25;12.23;;;3.77;;
4074;SDS011;2052;53.522;9.806;2023-07-30T09:59:52;10.30;;;4.50;;
4074;SDS011;2052;53.522;9.806;2023-07-30T10:02:19;9.13;;;4.47;;
4074;SDS011;2052;53.522;9.806;2023-07-30T10:04:47;11.00;;;3.77;;
4074;SDS011;2052;53.522;9.806;2023-07-30T10:07:16;8.60;;;4.57;;
4074;SDS011;2052;53.522;9.806;2023-07-30T10:09:48;12.60;;;4.60;;
4074;SDS011;2052;53.522;9.806;2023-07-30T10:12:20;12.50;;;4.83;;
4074;SDS011;2052;53.522;9.806;2023-07-30T10:14:50;16.10;;;5.67;;
4074;SDS011;2052;53.522;9.806;2023-07-30T10:17:24;14.70;;;4.90;;
4074;SDS011;2052;53.522;9.806;2023-07-30T10:19:54;7.20;;;3.87;;
4074;SDS011;2052;53.522;9.806;2023-07-30T10:22:22;9.37;;;4.80;;
4074;SDS011;2052;53.522;9.806;2023-07-30T10:24:56;17.73;;;4.87;;
4074;SDS011;2052;53.522;9.806;2023-07-30T10:27:25;14.63;;;4.43;;
4074;SDS011;2052;53.522;9.806;2023-07-30T10:30:10;13.53;;;3.90;;
4074;SDS011;2052;53.522;9.806;2023-07-30T10:32:38;9.10;;;4.00;;
4074;SDS011;2052;53.522;9.806;2023-07-30T10:35:05;6.33;;;3.73;;
4074;SDS011;2052;53.522;9.806;2023-07-30T10:37:32;11.30;;;4.27;;
4074;SDS011;2052;53.522;9.806;2023-07-30T10:39:59;10.57;;;3.87;;
4074;SDS011;2052;53.522;9.806;2023-07-30T10:42:32;8.23;;;4.00;;
4074;SDS011;2052;53.522;9.806;2023-07-30T10:45:08;7.37;;;4.30;;
4074;SDS011;2052;53.522;9.806;2023-07-30T10:47:36;11.57;;;4.20;;
4074;SDS011;2052;53.522;9.806;2023-07-30T10:50:05;8.80;;;3.50;;
4074;SDS011;2052;53.522;9.806;2023-07-30T10:52:42;10.13;;;3.60;;
4074;SDS011;2052;53.522;9.806;2023-07-30T10:55:09;8.30;;;2.70;;
4074;SDS011;2052;53.522;9.806;2023-07-30T10:57:36;6.60;;;2.73;;
4074;SDS011;2052;53.522;9.806;2023-07-30T11:00:05;9.80;;;4.17;;
4074;SDS011;2052;53.522;9.806;2023-07-30T11:02:36;8.77;;;3.60;;
4074;SDS011;2052;53.522;9.806;2023-07-30T11:05:11;4.70;;;3.17;;
4074;SDS011;2052;53.522;9.806;2023-07-30T11:07:38;8.97;;;3.00;;
4074;SDS011;2052;53.522;9.806;2023-07-30T11:10:06;9.97;;;3.40;;
4074;SDS011;2052;53.522;9.806;2023-07-30T11:12:33;5.07;;;2.80;;
4074;SDS011;2052;53.522;9.806;2023-07-30T11:15:02;10.23;;;3.60;;
4074;SDS011;2052;53.522;9.806;2023-07-30T11:17:31;7.50;;;2.87;;
4074;SDS011;2052;53.522;9.806;2023-07-30T11:20:00;15.63;;;3.53;;
4074;SDS011;2052;53.522;9.806;2023-07-30T11:22:31;9.67;;;3.70;;
4074;SDS011;2052;53.522;9.806;2023-07-30T11:25:00;7.80;;;2.90;;
4074;SDS011;2052;53.522;9.806;2023-07-30T11:27:44;5.60;;;2.63;;
4074;SDS011;2052;53.522;9.806;2023-07-30T11:30:11;5.70;;;2.73;;
4074;SDS011;2052;53.522;9.806;2023-07-30T11:32:38;10.33;;;2.43;;
4074;SDS011;2052;53.522;9.806;2023-07-30T11:35:07;5.10;;;2.40;;
4074;SDS011;2052;53.522;9.806;2023-07-30T11:37:34;5.93;;;2.50;;
4074;SDS011;2052;53.522;9.806;2023-07-30T11:40:03;3.87;;;2.93;;
4074;SDS011;2052;53.522;9.806;2023-07-30T11:42:31;5.93;;;2.73;;
4074;SDS011;2052;53.522;9.806;2023-07-30T11:44:58;5.70;;;2.50;;
4074;SDS011;2052;53.522;9.806;2023-07-30T11:47:24;10.60;;;3.53;;
4074;SDS011;2052;53.522;9.806;2023-07-30T11:49:56;9.07;;;2.53;;
4074;SDS011;2052;53.522;9.806;2023-07-30T11:52:24;5.20;;;2.20;;
4074;SDS011;2052;53.522;9.806;2023-07-30T11:54:59;6.70;;;2.70;;
4074;SDS011;2052;53.522;9.806;2023-07-30T11:57:32;9.07;;;2.80;;
4074;SDS011;2052;53.522;9.806;2023-07-30T12:00:00;7.07;;;3.20;;
4074;SDS011;2052;53.522;9.806;2023-07-30T12:02:27;7.87;;;3.17;;
4074;SDS011;2052;53.522;9.806;2023-07-30T12:04:54;9.03;;;3.10;;
4074;SDS011;2052;53.522;9.806;2023-07-30T12:07:25;4.20;;;2.47;;
4074;SDS011;2052;53.522;9.806;2023-07-30T12:09:54;9.53;;;4.30;;
4074;SDS011;2052;53.522;9.806;2023-07-30T12:12:24;5.23;;;2.43;;
4074;SDS011;2052;53.522;9.806;2023-07-30T12:14:58;4.63;;;2.60;;
4074;SDS011;2052;53.522;9.806;2023-07-30T12:17:25;5.07;;;2.87;;
4074;SDS011;2052;53.522;9.806;2023-07-30T12:19:52;6.63;;;3.10;;
4074;SDS011;2052;53.522;9.806;2023-07-30T12:22:18;5.73;;;2.57;;
4074;SDS011;2052;53.522;9.806;2023-07-30T12:24:46;10.60;;;3.20;;
4074;SDS011;2052;53.522;9.806;2023-07-30T12:27:13;4.50;;;3.00;;
4074;SDS011;2052;53.522;9.806;2023-07-30T12:29:39;5.60;;;3.00;;
4074;SDS011;2052;53.522;9.806;2023-07-30T12:32:07;7.10;;;2.87;;
4074;SDS011;2052;53.522;9.806;2023-07-30T12:34:34;7.77;;;2.97;;
4074;SDS011;2052;53.522;9.806;2023-07-30T12:37:00;4.67;;;2.90;;
4074;SDS011;2052;53.522;9.806;2023-07-30T12:39:27;6.07;;;2.70;;
4074;SDS011;2052;53.522;9.806;2023-07-30T12:41:56;6.77;;;3.57;;
4074;SDS011;2052;53.522;9.806;2023-07-30T12:44:22;8.73;;;2.90;;
4074;SDS011;2052;53.522;9.806;2023-07-30T12:46:49;8.67;;;3.10;;
4074;SDS011;2052;53.522;9.806;2023-07-30T12:49:16;7.80;;;3.10;;
4074;SDS011;2052;53.522;9.806;2023-07-30T12:51:43;9.20;;;2.90;;
4074;SDS011;2052;53.522;9.806;2023-07-30T12:54:09;11.03;;;3.43;;
4074;SDS011;2052;53.522;9.806;2023-07-30T12:56:36;6.90;;;3.20;;
4074;SDS011;2052;53.522;9.806;2023-07-30T12:59:04;6.17;;;2.70;;
4074;SDS011;2052;53.522;9.806;2023-07-30T13:01:30;8.73;;;2.33;;
4074;SDS011;2052;53.522;9.806;2023-07-30T13:03:57;9.67;;;2.97;;
4074;SDS011;2052;53.522;9.806;2023-07-30T13:06:23;5.60;;;3.07;;
4074;SDS011;2052;53.522;9.806;2023-07-30T13:08:52;10.90;;;3.07;;
4074;SDS011;2052;53.522;9.806;2023-07-30T13:11:19;8.43;;;3.17;;
4074;SDS011;2052;53.522;9.806;2023-07-30T13:13:46;8.50;;;3.33;;
4074;SDS011;2052;53.522;9.806;2023-07-30T13:16:14;6.00;;;2.97;;
4074;SDS011;2052;53.522;9.806;2023-07-30T13:18:40;6.80;;;2.90;;
4074;SDS011;2052;53.522;9.806;2023-07-30T13:21:07;7.57;;;2.77;;
4074;SDS011;2052;53.522;9.806;2023-07-30T13:23:34;6.63;;;3.10;;
4074;SDS011;2052;53.522;9.806;2023-07-30T13:26:00;7.23;;;2.73;;
4074;SDS011;2052;53.522;9.806;2023-07-30T13:28:28;4.00;;;2.60;;
4074;SDS011;2052;53.522;9.806;2023-07-30T13:30:54;4.13;;;2.43;;
4074;SDS011;2052;53.522;9.806;2023-07-30T13:33:23;5.43;;;2.50;;
4074;SDS011;2052;53.522;9.806;2023-07-30T13:35:50;8.10;;;2.73;;
4074;SDS011;2052;53.522;9.806;2023-07-30T13:38:16;6.23;;;2.80;;
4074;SDS011;2052;53.522;9.806;2023-07-30T13:40:46;11.50;;;2.60;;
4074;SDS011;2052;53.522;9.806;2023-07-30T13:43:12;8.60;;;2.57;;
4074;SDS011;2052;53.522;9.806;2023-07-30T13:45:40;5.07;;;2.40;;
4074;SDS011;2052;53.522;9.806;2023-07-30T13:48:06;6.23;;;2.07;;
4074;SDS011;2052;53.522;9.806;2023-07-30T13:50:35;3.37;;;2.20;;
4074;SDS011;2052;53.522;9.806;2023-07-30T13:53:02;4.70;;;1.80;;
4074;SDS011;2052;53.522;9.806;2023-07-30T13:55:29;2.13;;;1.80;;
4074;SDS011;2052;53.522;9.806;2023-07-30T13:57:56;7.00;;;2.53;;
4074;SDS011;2052;53.522;9.806;2023-07-30T14:00:23;3.80;;;1.73;;
4074;SDS011;2052;53.522;9.806;2023-07-30T14:02:50;3.60;;;1.90;;
4074;SDS011;2052;53.522;9.806;2023-07-30T14:05:16;3.90;;;1.80;;
4074;SDS011;2052;53.522;9.806;2023-07-30T14:07:45;3.03;;;1.67;;
4074;SDS011;2052;53.522;9.806;2023-07-30T14:10:12;6.10;;;1.90;;
4074;SDS011;2052;53.522;9.806;2023-07-30T14:12:38;2.10;;;1.50;;
4074;SDS011;2052;53.522;9.806;2023-07-30T14:15:05;3.63;;;1.43;;
4074;SDS011;2052;53.522;9.806;2023-07-30T14:17:33;3.70;;;1.30;;
4074;SDS011;2052;53.522;9.806;2023-07-30T14:19:59;4.87;;;2.13;;
4074;SDS011;2052;53.522;9.806;2023-07-30T14:22:26;3.70;;;1.90;;
4074;SDS011;2052;53.522;9.806;2023-07-30T14:24:54;7.37;;;2.13;;
4074;SDS011;2052;53.522;9.806;2023-07-30T14:27:22;6.70;;;2.00;;
4074;SDS011;2052;53.522;9.806;2023-07-30T14:29:50;4.47;;;2.07;;
4074;SDS011;2052;53.522;9.806;2023-07-30T14:32:17;6.33;;;2.20;;
4074;SDS011;2052;53.522;9.806;2023-07-30T14:34:43;3.57;;;2.07;;
4074;SDS011;2052;53.522;9.806;2023-07-30T14:37:10;3.77;;;2.00;;
4074;SDS011;2052;53.522;9.806;2023-07-30T14:39:36;5.53;;;1.57;;
4074;SDS011;2052;53.522;9.806;2023-07-30T14:42:05;4.63;;;1.97;;
4074;SDS011;2052;53.522;9.806;2023-07-30T14:44:34;6.30;;;1.90;;
4074;SDS011;2052;53.522;9.806;2023-07-30T14:47:03;2.47;;;1.70;;
4074;SDS011;2052;53.522;9.806;2023-07-30T14:49:33;8.37;;;3.90;;
4074;SDS011;2052;53.522;9.806;2023-07-30T14:52:01;4.10;;;2.57;;
4074;SDS011;2052;53.522;9.806;2023-07-30T14:54:28;5.23;;;1.67;;
4074;SDS011;2052;53.522;9.806;2023-07-30T14:56:55;2.17;;;1.80;;
4074;SDS011;2052;53.522;9.806;2023-07-30T14:59:25;9.00;;;3.73;;
4074;SDS011;2052;53.522;9.806;2023-07-30T15:01:52;4.70;;;1.70;;
4074;SDS011;2052;53.522;9.806;2023-07-30T15:04:18;3.07;;;1.70;;
4074;SDS011;2052;53.522;9.806;2023-07-30T15:06:45;6.50;;;2.90;;
4074;SDS011;2052;53.522;9.806;2023-07-30T15:09:11;5.13;;;2.27;;
4074;SDS011;2052;53.522;9.806;2023-07-30T15:11:38;3.43;;;2.07;;
4074;SDS011;2052;53.522;9.806;2023-07-30T15:14:05;9.13;;;2.13;;